Tusculam, Pennsylvania
Current Conditions -  °F | °C
As of 12:53 PM on Thursday 18 Dec 2014 (Local Time) from KRYT Reporting Station
Overcast Overcast  
Wind Chill: 25°   Ceiling: 2800
Heat Index: 33°   Visibility: 10mi
Dew Point: 22°   Wind: 9mph
Humidity: 64%   Direction: 260°W
Pressure: 30.07"   Gusts: NA
Location:  40.0414°N, 77.4967°W
Report Text: KRYT 181753Z AUTO 26008KT 10SM OVC028 01/M06 A3007 RMK AO2 SLP199 T00061056 10006 21011 58012 $
Loading
Personal Weather Stations






























Interactive Weather Map New forecast layout! Learn more

10-Day Weather Forecast

Advertisements
Track Severe Weather on mobile